Time;durP1;ratioP1;P1;durP2;ratioP2;P2;SDS_P1;SDS_P2;PMS_P1;PMS_P2;Temp;Humidity;BMP_temperature;BMP_pressure;BME280_temperature;BME280_humidity;BME280_pressure;Samples;Min_cycle;Max_cycle;Signal;HPM_P1;HPM_P2
2023/02/20 00:00:07;;;;;;;48.30;45.33;;;;;;;7.05;86.13;99153.16;5062988;28;20032;-72
2023/02/20 00:02:33;;;;;;;43.58;41.15;;;;;;;7.12;86.33;99145.19;5050103;28;20047;-73
2023/02/20 00:04:58;;;;;;;46.78;43.97;;;;;;;7.08;86.94;99143.91;5046075;28;20558;-73
2023/02/20 00:07:23;;;;;;;46.45;43.67;;;;;;;7.02;86.78;99140.19;5057840;28;20059;-73
2023/02/20 00:09:49;;;;;;;46.05;43.33;;;;;;;6.96;86.54;99141.81;5057887;28;20041;-73
2023/02/20 00:12:14;;;;;;;45.03;42.53;;;;;;;7.12;86.76;99147.88;5063181;28;20024;-73
2023/02/20 00:14:39;;;;;;;44.80;42.03;;;;;;;6.90;86.60;99137.25;5046017;28;20047;-72
2023/02/20 00:17:05;;;;;;;44.50;42.00;;;;;;;7.06;85.96;99148.63;5046821;28;20056;-73
2023/02/20 00:19:30;;;;;;;44.42;41.90;;;;;;;7.04;85.65;99151.53;5042663;28;20032;-73
2023/02/20 00:21:56;;;;;;;40.38;37.97;;;;;;;7.10;85.70;99153.41;5049642;28;20028;-72
2023/02/20 00:24:21;;;;;;;42.67;40.17;;;;;;;7.02;85.20;99158.09;5063431;28;20045;-71
2023/02/20 00:26:53;;;;;;;42.58;40.03;;;;;;;6.93;86.01;99139.50;5047192;28;20021;-72
2023/02/20 00:29:20;;;;;;;42.40;39.70;;;;;;;7.09;85.31;99148.25;5052962;28;20479;-75
2023/02/20 00:31:51;;;;;;;38.65;36.45;;;;;;;7.03;84.93;99141.00;5039976;28;20025;-72
2023/02/20 00:34:16;;;;;;;39.80;37.20;;;;;;;6.98;85.57;99137.06;5050128;28;20075;-71
2023/02/20 00:36:43;;;;;;;38.78;36.38;;;;;;;7.00;85.40;99136.06;5049690;28;20436;-72
2023/02/20 00:39:09;;;;;;;35.42;33.03;;;;;;;7.02;84.98;99142.88;5062742;28;20039;-71
2023/02/20 00:41:34;;;;;;;36.38;33.95;;;;;;;7.04;85.07;99145.34;5049517;28;20040;-71
2023/02/20 00:43:59;;;;;;;38.22;35.72;;;;;;;7.03;84.90;99138.31;5045775;28;20115;-72
2023/02/20 00:46:25;;;;;;;37.95;35.45;;;;;;;7.01;84.88;99138.53;5040386;28;20047;-72
2023/02/20 00:48:50;;;;;;;37.85;35.55;;;;;;;7.06;84.74;99137.94;5055980;28;20229;-72
2023/02/20 00:51:35;;;;;;;40.72;38.22;;;;;;;7.04;85.25;99134.63;5080914;28;20081;-72
2023/02/20 00:54:01;;;;;;;38.28;35.88;;;;;;;7.05;84.74;99136.28;5070591;28;20157;-73
2023/02/20 00:56:27;;;;;;;38.03;35.53;;;;;;;7.08;84.53;99136.72;5042615;28;20027;-73
2023/02/20 00:58:52;;;;;;;37.45;35.13;;;;;;;7.06;84.80;99156.69;5053096;28;20076;-73
2023/02/20 01:01:18;;;;;;;37.47;35.08;;;;;;;6.99;85.28;99153.97;5063497;28;20159;-74
2023/02/20 01:03:43;;;;;;;36.15;33.80;;;;;;;7.03;84.78;99151.72;5066239;28;20123;-74
2023/02/20 01:06:09;;;;;;;33.60;31.60;;;;;;;7.13;83.98;99152.19;5072374;28;20066;-74
2023/02/20 01:08:34;;;;;;;34.65;32.33;;;;;;;6.98;84.11;99147.78;5076784;28;20035;-73
2023/02/20 01:11:01;;;;;;;37.28;35.08;;;;;;;7.01;84.71;99137.69;5053016;28;20016;-74
2023/02/20 01:13:27;;;;;;;36.10;33.85;;;;;;;6.92;84.76;99132.53;5053005;28;20060;-74
2023/02/20 01:15:52;;;;;;;37.38;34.97;;;;;;;6.85;85.09;99131.66;5052891;28;20108;-73
2023/02/20 01:18:18;;;;;;;38.88;36.22;;;;;;;6.85;84.76;99137.00;5049597;28;20428;-73
2023/02/20 01:20:43;;;;;;;37.38;34.75;;;;;;;6.85;84.89;99131.66;5045618;28;20051;-72
2023/02/20 01:23:09;;;;;;;39.17;36.72;;;;;;;6.97;84.91;99135.44;5051029;28;20033;-72
2023/02/20 01:25:34;;;;;;;36.88;34.47;;;;;;;6.96;84.54;99128.41;5063224;28;20036;-72
2023/02/20 01:27:59;;;;;;;36.15;33.75;;;;;;;7.02;84.12;99131.31;5082054;28;20156;-75
2023/02/20 01:30:25;;;;;;;37.47;34.97;;;;;;;7.00;84.85;99133.38;5052571;28;20029;-73
2023/02/20 01:32:50;;;;;;;37.00;34.70;;;;;;;6.93;84.65;99123.44;5049302;28;20020;-73
2023/02/20 01:35:16;;;;;;;36.83;34.53;;;;;;;6.85;84.33;99128.97;5062749;28;20028;-75
2023/02/20 01:37:42;;;;;;;36.22;33.92;;;;;;;6.92;84.12;99116.44;5052462;28;20115;-72
2023/02/20 01:40:12;;;;;;;34.58;32.08;;;;;;;6.80;84.41;99115.34;5035811;28;20435;-74
2023/02/20 01:42:38;;;;;;;34.30;31.90;;;;;;;6.83;84.39;99117.66;5051598;28;20659;-72
2023/02/20 01:45:21;;;;;;;31.40;29.30;;;;;;;6.95;83.48;99132.09;5035532;28;20028;-72
2023/02/20 01:47:52;;;;;;;31.42;29.33;;;;;;;6.97;82.78;99129.25;5052271;28;20039;-73
2023/02/20 01:50:19;;;;;;;29.25;27.13;;;;;;;6.84;83.39;99138.03;5052195;28;20040;-76
2023/02/20 01:52:47;;;;;;;28.67;26.67;;;;;;;6.86;83.21;99138.66;5048786;28;20013;-75
2023/02/20 01:55:18;;;;;;;27.30;25.38;;;;;;;6.85;82.77;99137.00;5055489;28;20627;-74
2023/02/20 01:57:51;;;;;;;28.58;26.48;;;;;;;6.82;83.23;99142.75;5060403;28;20061;-74
2023/02/20 02:00:20;;;;;;;26.65;24.63;;;;;;;6.72;83.51;99146.81;5053159;28;20403;-74
2023/02/20 02:02:53;;;;;;;24.88;23.08;;;;;;;6.76;82.29;99140.88;5052022;28;20028;-72
2023/02/20 02:05:20;;;;;;;24.63;22.75;;;;;;;6.75;82.65;99136.53;5054173;28;20400;-72
2023/02/20 02:07:46;;;;;;;24.50;22.48;;;;;;;6.76;81.83;99127.50;5047948;28;20028;-73
2023/02/20 02:10:13;;;;;;;23.90;22.10;;;;;;;6.69;82.59;99128.47;5058456;28;20039;-73
2023/02/20 02:12:39;;;;;;;25.33;23.60;;;;;;;6.53;82.96;99116.22;5062682;28;20066;-75
2023/02/20 02:15:18;;;;;;;24.92;23.00;;;;;;;6.66;82.43;99126.16;5051067;28;20028;-73
2023/02/20 02:18:01;;;;;;;26.83;24.75;;;;;;;6.71;82.33;99119.22;5060181;28;20040;-74
2023/02/20 02:20:37;;;;;;;23.50;21.80;;;;;;;6.66;82.95;99115.47;5053013;28;20037;-74
2023/02/20 02:23:41;;;;;;;26.52;24.63;;;;;;;6.71;83.19;99113.88;5064771;28;20024;-73
2023/02/20 02:26:30;;;;;;;26.45;24.55;;;;;;;6.60;83.15;99111.75;5065307;28;20040;-73
2023/02/20 02:29:16;;;;;;;28.30;25.98;;;;;;;6.57;82.71;99103.28;5081666;28;20061;-74
2023/02/20 02:32:08;;;;;;;26.30;24.08;;;;;;;6.50;82.95;99111.25;5066896;28;20025;-74
2023/02/20 02:34:53;;;;;;;27.35;25.45;;;;;;;6.70;81.78;99104.16;5074462;23;20048;-75
2023/02/20 02:37:29;;;;;;;;;;;;;;;6.72;82.44;99107.47;5038816;28;20426;-75
2023/02/20 02:40:00;;;;;;;25.65;23.73;;;;;;;6.60;81.69;99106.41;5058172;28;20015;-75
2023/02/20 02:42:49;;;;;;;25.50;23.60;;;;;;;6.58;81.99;99096.91;5072394;28;20052;-75
2023/02/20 02:45:26;;;;;;;27.67;25.77;;;;;;;6.50;82.64;99099.72;5071052;28;20071;-75
2023/02/20 02:48:11;;;;;;;25.65;23.40;;;;;;;6.65;82.14;99093.22;5050637;28;20040;-75
2023/02/20 02:50:39;;;;;;;24.33;22.42;;;;;;;6.69;82.08;99094.50;5052194;28;20040;-75
2023/02/20 02:53:08;;;;;;;24.67;22.88;;;;;;;6.67;82.30;99088.53;5062900;28;20098;-76
2023/02/20 02:55:33;;;;;;;22.23;20.60;;;;;;;6.80;81.28;99077.88;5065948;28;20050;-74
2023/02/20 02:58:00;;;;;;;21.88;20.08;;;;;;;6.51;81.94;99083.47;5070914;28;20111;-75
2023/02/20 03:00:31;;;;;;;22.33;20.63;;;;;;;6.71;80.99;99084.41;5040996;28;20040;-75
2023/02/20 03:03:08;;;;;;;22.27;20.40;;;;;;;6.54;81.76;99101.81;5061601;28;20052;-75
2023/02/20 03:05:47;;;;;;;20.25;18.63;;;;;;;6.68;80.19;99103.53;5051310;28;20044;-75
2023/02/20 03:08:30;;;;;;;20.90;19.10;;;;;;;6.64;80.64;99102.28;5035041;28;20499;-76
2023/02/20 03:11:13;;;;;;;20.20;18.40;;;;;;;6.62;80.89;99114.22;5043662;28;20029;-75
2023/02/20 03:17:05;;;;;;;20.33;18.58;;;;;;;6.89;80.50;99121.34;5038238;28;20061;-76
2023/02/20 03:19:38;;;;;;;19.08;17.67;;;;;;;7.06;80.12;99111.16;5054161;28;20064;-76
2023/02/20 03:22:09;;;;;;;19.90;18.15;;;;;;;7.03;79.69;99111.53;5063387;28;20032;-75
2023/02/20 03:24:53;;;;;;;21.00;19.20;;;;;;;6.93;80.13;99104.69;5064611;28;20064;-76
2023/02/20 03:27:27;;;;;;;23.08;21.15;;;;;;;6.96;79.86;99109.66;5039747;28;20060;-75
2023/02/20 03:29:56;;;;;;;21.92;20.23;;;;;;;7.00;80.21;99095.88;5033730;28;20050;-75
2023/02/20 03:43:24;;;;;;;24.10;22.27;;;;;;;6.96;82.16;99090.09;5047406;28;20344;-77
2023/02/20 03:45:52;;;;;;;25.58;23.48;;;;;;;7.01;80.96;99086.81;5036634;28;20029;-77
2023/02/20 03:48:25;;;;;;;28.33;26.02;;;;;;;6.94;81.90;99090.31;5054284;28;20502;-78
2023/02/20 03:53:44;;;;;;;29.85;27.48;;;;;;;6.76;82.32;99103.41;5043592;28;20051;-77
2023/02/20 03:56:37;;;;;;;28.00;25.90;;;;;;;6.82;81.42;99091.06;5045510;28;20124;-77
2023/02/20 03:59:13;;;;;;;32.17;29.67;;;;;;;6.87;82.29;99081.41;5060404;28;20114;-77
2023/02/20 04:01:40;;;;;;;31.58;29.00;;;;;;;6.82;82.05;99094.56;5042993;28;20464;-77
2023/02/20 04:04:11;;;;;;;32.95;30.48;;;;;;;6.75;83.17;99088.34;5039611;28;20034;-76
2023/02/20 04:06:38;;;;;;;32.42;29.92;;;;;;;6.66;83.49;99086.84;5050277;28;20036;-75
2023/02/20 04:09:06;;;;;;;33.35;30.58;;;;;;;6.71;82.93;99087.09;5036479;28;20028;-77
2023/02/20 04:11:57;;;;;;;33.72;31.13;;;;;;;6.65;83.49;99087.88;5039961;28;20634;-77
2023/02/20 04:14:26;;;;;;;35.28;32.42;;;;;;;6.62;82.79;99088.28;5042175;28;20043;-76
2023/02/20 04:16:58;;;;;;;34.33;31.48;;;;;;;6.50;83.39;99092.53;5032329;28;20029;-77
2023/02/20 04:19:25;;;;;;;36.28;33.45;;;;;;;6.67;83.14;99080.50;5049992;28;20060;-76
2023/02/20 04:21:55;;;;;;;34.47;31.88;;;;;;;6.67;83.35;99085.84;5052641;28;20476;-75
2023/02/20 04:24:28;;;;;;;33.40;30.70;;;;;;;6.73;82.48;99084.22;5050565;28;20033;-76
2023/02/20 04:26:54;;;;;;;34.47;31.75;;;;;;;6.55;83.11;99076.72;5024787;28;20056;-76
2023/02/20 04:29:19;;;;;;;31.08;28.63;;;;;;;6.55;82.49;99079.41;5069763;28;20055;-76
2023/02/20 04:31:45;;;;;;;33.22;30.38;;;;;;;6.47;83.33;99074.19;5049709;28;20373;-76
2023/02/20 04:34:11;;;;;;;33.92;31.17;;;;;;;6.42;83.37;99079.28;5048382;28;20062;-76
2023/02/20 04:36:38;;;;;;;32.08;29.38;;;;;;;6.51;83.11;99086.13;5040315;28;20028;-75
2023/02/20 04:39:04;;;;;;;32.33;29.77;;;;;;;6.54;83.14;99080.41;5040604;28;20023;-77
2023/02/20 04:41:31;;;;;;;31.20;28.52;;;;;;;6.50;82.56;99084.50;5053637;28;20037;-76
2023/02/20 04:46:43;;;;;;;32.40;29.65;;;;;;;6.52;82.85;99098.50;5049351;28;20041;-76
2023/02/20 04:49:08;;;;;;;28.80;26.20;;;;;;;6.64;81.63;99106.81;5053495;28;20040;-76
2023/02/20 04:51:34;;;;;;;29.30;26.67;;;;;;;6.55;82.78;99114.19;5053485;28;20035;-77
2023/02/20 04:53:59;;;;;;;29.05;26.52;;;;;;;6.48;83.36;99101.78;5071206;28;20017;-76
2023/02/20 04:56:24;;;;;;;31.35;28.75;;;;;;;6.44;82.90;99101.31;5040095;28;20127;-76
2023/02/20 04:58:52;;;;;;;31.85;28.95;;;;;;;6.51;83.18;99112.91;5057084;28;20067;-76
2023/02/20 05:01:19;;;;;;;32.05;29.42;;;;;;;6.44;83.22;99101.31;5073581;28;20040;-75
2023/02/20 05:03:45;;;;;;;28.80;26.15;;;;;;;6.47;82.74;99106.28;5059476;28;20104;-76
2023/02/20 05:06:10;;;;;;;28.42;26.13;;;;;;;6.55;82.33;99105.31;5039668;28;20036;-75
2023/02/20 05:08:35;;;;;;;30.85;28.27;;;;;;;6.61;82.12;99112.56;5052771;28;20040;-76
2023/02/20 05:11:01;;;;;;;29.17;26.58;;;;;;;6.57;81.38;99125.50;5046942;28;20119;-77
2023/02/20 05:13:26;;;;;;;29.23;26.88;;;;;;;6.46;82.29;99115.34;5073763;28;20017;-76
2023/02/20 05:15:52;;;;;;;28.60;26.25;;;;;;;6.61;81.71;99118.72;5056201;28;20127;-76
2023/02/20 05:18:26;;;;;;;54.53;48.90;;;;;;;6.53;81.55;99126.09;5055852;28;20757;-76
2023/02/20 05:23:35;;;;;;;104.45;86.97;;;;;;;6.58;81.90;99127.16;5058683;28;20036;-76
2023/02/20 05:26:01;;;;;;;29.25;26.55;;;;;;;6.52;82.13;99135.97;5039286;28;20039;-77
2023/02/20 05:28:26;;;;;;;27.58;25.10;;;;;;;6.52;82.26;99132.47;5066929;28;20469;-76
2023/02/20 05:30:52;;;;;;;26.58;24.25;;;;;;;6.41;81.70;99133.84;5065115;28;20103;-76
2023/02/20 05:33:17;;;;;;;22.80;20.67;;;;;;;6.48;81.11;99141.91;5059136;28;20037;-76
2023/02/20 05:35:42;;;;;;;25.38;23.10;;;;;;;6.54;81.58;99133.91;5039001;28;20028;-76
2023/02/20 05:38:08;;;;;;;23.00;20.80;;;;;;;6.47;80.24;99122.34;5073789;28;20033;-76
2023/02/20 05:40:33;;;;;;;22.30;20.23;;;;;;;6.38;81.04;99128.03;5073894;28;20032;-75
2023/02/20 05:42:59;;;;;;;21.75;19.65;;;;;;;6.40;80.84;99115.28;5050462;28;20158;-76
2023/02/20 05:45:24;;;;;;;20.70;18.98;;;;;;;6.30;81.73;99121.00;5052545;28;20025;-73
2023/02/20 05:47:49;;;;;;;22.13;20.23;;;;;;;6.29;81.55;99122.00;5053922;28;20484;-75
2023/02/20 05:50:15;;;;;;;23.10;20.58;;;;;;;6.25;81.28;99115.41;5064309;28;20042;-76
2023/02/20 05:52:41;;;;;;;22.50;20.25;;;;;;;6.31;80.80;99114.63;5055745;28;20036;-75
2023/02/20 05:55:06;;;;;;;22.45;20.35;;;;;;;6.40;80.20;99110.78;5043071;28;20043;-76
2023/02/20 05:57:32;;;;;;;20.38;18.67;;;;;;;6.42;80.40;99111.41;5072353;28;20043;-75
2023/02/20 05:59:57;;;;;;;20.83;18.77;;;;;;;6.33;81.20;99112.56;5072981;28;20082;-75
2023/02/20 06:02:23;;;;;;;21.90;19.73;;;;;;;6.30;81.38;99110.31;5036897;28;20033;-75
2023/02/20 06:04:48;;;;;;;22.88;20.85;;;;;;;6.26;80.62;99098.31;5049200;28;20119;-75
2023/02/20 06:07:13;;;;;;;21.67;19.42;;;;;;;6.18;81.05;99106.50;5052423;28;20479;-76
2023/02/20 06:09:43;;;;;;;22.33;20.10;;;;;;;6.28;80.66;99123.03;5058465;28;20041;-76
2023/02/20 06:12:08;;;;;;;21.42;19.35;;;;;;;6.22;80.39;99129.16;5063964;28;20097;-76
2023/02/20 06:14:34;;;;;;;22.42;20.48;;;;;;;6.25;80.91;99110.06;5064383;28;20063;-77
2023/02/20 06:16:59;;;;;;;20.58;18.70;;;;;;;6.20;80.44;99107.97;5034840;28;20032;-74
2023/02/20 06:19:25;;;;;;;21.08;19.17;;;;;;;6.21;80.83;99112.28;5051805;28;20167;-74
2023/02/20 06:21:57;;;;;;;19.95;17.92;;;;;;;6.26;81.06;99112.53;5065249;28;20028;-76
2023/02/20 06:24:23;;;;;;;23.45;21.25;;;;;;;6.21;80.71;99124.81;5064286;28;20033;-76
2023/02/20 06:26:49;;;;;;;19.85;17.77;;;;;;;6.27;79.59;99124.06;5038276;28;20025;-75
2023/02/20 06:29:15;;;;;;;20.20;18.17;;;;;;;6.30;80.51;99131.72;5064183;28;20044;-75
2023/02/20 06:31:40;;;;;;;18.50;16.60;;;;;;;6.29;79.62;99132.72;5054962;28;20020;-75
2023/02/20 06:34:07;;;;;;;21.40;18.85;;;;;;;6.22;80.35;99134.50;5054991;28;20453;-76
2023/02/20 06:36:35;;;;;;;19.83;17.50;;;;;;;6.31;80.09;99137.84;5041316;28;20081;-75
2023/02/20 06:39:00;;;;;;;19.23;17.27;;;;;;;6.28;79.55;99144.41;5042201;28;20055;-75
2023/02/20 06:41:26;;;;;;;18.00;15.95;;;;;;;6.34;80.00;99154.38;5040492;28;20463;-76
2023/02/20 06:43:52;;;;;;;20.13;18.23;;;;;;;6.29;79.59;99151.44;5087884;28;20044;-76
2023/02/20 06:46:17;;;;;;;24.00;21.52;;;;;;;6.28;79.89;99149.78;5057712;28;20029;-76
2023/02/20 06:48:51;;;;;;;26.98;21.90;;;;;;;6.33;80.24;99136.66;5072650;28;20045;-75
2023/02/20 06:51:21;;;;;;;88.07;58.35;;;;;;;6.40;79.18;99121.47;5047931;28;20106;-76
2023/02/20 06:53:46;;;;;;;54.38;37.83;;;;;;;6.38;79.47;99117.34;5065015;28;20494;-76
2023/02/20 06:56:19;;;;;;;34.55;27.02;;;;;;;6.34;79.71;99116.91;5070677;28;20103;-76
2023/02/20 06:58:49;;;;;;;196.40;117.60;;;;;;;6.21;80.42;99106.09;5057608;28;20480;-75
2023/02/20 07:01:16;;;;;;;159.38;99.97;;;;;;;6.23;80.43;99130.81;5045852;28;20087;-75
2023/02/20 07:03:41;;;;;;;38.55;31.88;;;;;;;6.10;81.57;99125.34;5066151;28;20426;-76
2023/02/20 07:06:07;;;;;;;31.00;27.67;;;;;;;6.16;80.31;99129.94;5053899;28;20098;-76
2023/02/20 07:08:32;;;;;;;23.20;20.98;;;;;;;6.05;81.57;99133.94;5054138;28;20028;-75
2023/02/20 07:10:57;;;;;;;24.92;22.73;;;;;;;6.21;81.60;99144.38;5062530;28;20029;-76
2023/02/20 07:13:23;;;;;;;24.02;21.83;;;;;;;6.16;80.73;99146.78;5049120;28;20471;-75
2023/02/20 07:15:48;;;;;;;22.50;20.48;;;;;;;6.33;80.80;99147.34;5053997;28;20530;-75
2023/02/20 07:18:16;;;;;;;23.45;21.30;;;;;;;6.28;80.86;99155.13;5070633;28;20092;-75
2023/02/20 07:20:42;;;;;;;20.40;18.55;;;;;;;6.43;80.18;99163.91;5053900;28;20032;-76
2023/02/20 07:23:07;;;;;;;21.17;19.17;;;;;;;6.43;80.34;99152.38;5069503;28;20012;-75
2023/02/20 07:25:32;;;;;;;21.25;19.40;;;;;;;6.51;80.28;99155.72;5070504;28;20052;-76
2023/02/20 07:27:58;;;;;;;20.80;18.83;;;;;;;6.45;80.52;99135.09;5056899;28;20029;-75
2023/02/20 07:30:24;;;;;;;20.75;18.95;;;;;;;6.51;80.54;99134.31;5053846;28;20119;-76
2023/02/20 07:32:49;;;;;;;21.02;19.35;;;;;;;6.43;80.72;99125.59;5052391;28;20028;-75
2023/02/20 07:35:15;;;;;;;21.10;19.20;;;;;;;6.46;80.14;99125.22;5050094;28;20067;-76
2023/02/20 07:37:40;;;;;;;19.52;17.85;;;;;;;6.47;80.25;99127.69;5052036;28;20542;-76
2023/02/20 07:40:06;;;;;;;22.60;20.65;;;;;;;6.47;80.40;99133.03;5049161;28;20040;-76
2023/02/20 07:42:31;;;;;;;21.17;19.23;;;;;;;6.52;80.44;99127.09;5052877;28;20108;-75
2023/02/20 07:45:05;;;;;;;23.90;21.70;;;;;;;6.55;79.62;99143.63;5046872;28;20033;-74
2023/02/20 07:47:31;;;;;;;23.77;21.58;;;;;;;6.49;80.45;99141.69;5057788;28;20040;-76
2023/02/20 07:49:56;;;;;;;23.80;21.80;;;;;;;6.71;80.08;99129.91;5063171;28;20043;-76
2023/02/20 07:52:22;;;;;;;23.98;21.98;;;;;;;6.63;80.92;99138.09;5060030;28;20112;-75
2023/02/20 07:54:47;;;;;;;24.05;21.95;;;;;;;6.67;79.50;99123.31;5027442;28;20029;-76
2023/02/20 07:57:14;;;;;;;24.27;22.20;;;;;;;6.78;79.67;99133.47;5032074;28;20039;-76
2023/02/20 07:59:40;;;;;;;25.70;23.58;;;;;;;6.76;80.04;99135.53;5061422;28;20029;-77
2023/02/20 08:02:05;;;;;;;26.17;23.77;;;;;;;6.55;81.68;99138.25;5030375;28;20043;-75
2023/02/20 08:04:31;;;;;;;29.20;26.77;;;;;;;6.62;80.94;99123.06;5069743;28;20024;-75
2023/02/20 08:06:56;;;;;;;28.20;26.00;;;;;;;6.49;80.88;99120.28;5053401;28;20395;-75
2023/02/20 08:09:22;;;;;;;30.95;28.35;;;;;;;6.70;80.94;99117.56;5071038;28;20059;-76
2023/02/20 08:11:48;;;;;;;28.35;26.02;;;;;;;6.85;80.47;99115.59;5051564;28;20032;-76
2023/02/20 08:14:14;;;;;;;29.27;26.95;;;;;;;6.78;80.57;99109.38;5036771;28;20020;-75
2023/02/20 08:16:39;;;;;;;27.35;24.80;;;;;;;6.85;79.91;99115.59;5071009;28;20088;-76
2023/02/20 08:19:04;;;;;;;25.98;23.90;;;;;;;6.94;80.01;99111.72;5049873;28;20041;-76
2023/02/20 08:21:30;;;;;;;25.35;23.45;;;;;;;7.00;80.13;99111.94;5047734;28;20036;-76
2023/02/20 08:23:56;;;;;;;25.67;23.60;;;;;;;7.14;79.56;99114.47;5049445;28;20025;-76
2023/02/20 08:26:21;;;;;;;25.00;22.92;;;;;;;7.28;79.31;99118.84;5066431;28;20059;-76
2023/02/20 08:28:47;;;;;;;23.30;20.85;;;;;;;7.16;78.45;99106.25;5059930;28;20039;-76
2023/02/20 08:31:13;;;;;;;22.85;20.70;;;;;;;7.28;79.44;99118.06;5039895;28;20260;-76
2023/02/20 08:33:38;;;;;;;21.65;19.67;;;;;;;7.24;78.25;99120.28;5054243;28;20024;-76
2023/02/20 08:36:04;;;;;;;20.40;18.58;;;;;;;7.08;78.53;99120.63;5070286;28;20033;-76
2023/02/20 08:38:33;;;;;;;22.65;20.63;;;;;;;7.10;79.85;99121.25;5053035;28;20546;-75
2023/02/20 08:40:59;;;;;;;19.70;17.83;;;;;;;7.08;79.40;99119.81;5036480;28;20036;-75
2023/02/20 08:43:24;;;;;;;20.00;18.02;;;;;;;6.93;78.90;99110.06;5060525;28;20033;-75
2023/02/20 08:45:51;;;;;;;21.13;19.25;;;;;;;7.20;79.02;99107.50;5019112;28;20041;-75
2023/02/20 08:48:16;;;;;;;18.73;17.15;;;;;;;7.09;77.35;99105.41;5060778;28;20024;-75
2023/02/20 08:50:42;;;;;;;21.05;19.15;;;;;;;7.28;79.04;99100.09;5065725;28;20097;-75
2023/02/20 08:53:07;;;;;;;18.40;16.42;;;;;;;7.41;77.23;99096.66;5049936;28;20025;-76
2023/02/20 08:55:33;;;;;;;16.60;15.05;;;;;;;7.23;76.96;99096.38;5052303;28;20052;-75
2023/02/20 08:57:58;;;;;;;15.23;13.07;;;;;;;7.39;76.62;99080.78;5070345;28;20024;-76
2023/02/20 09:00:23;;;;;;;15.10;12.48;;;;;;;7.18;76.79;99088.97;5071178;28;20525;-76
2023/02/20 09:02:49;;;;;;;14.55;12.32;;;;;;;7.35;77.32;99070.66;5053182;28;20032;-75
2023/02/20 09:05:15;;;;;;;13.85;12.55;;;;;;;7.54;76.38;99067.19;5053145;28;20045;-77
2023/02/20 09:07:40;;;;;;;12.90;11.25;;;;;;;7.59;75.69;99064.72;5070007;28;20395;-76
2023/02/20 09:10:06;;;;;;;12.73;10.98;;;;;;;7.48;75.47;99058.13;5051384;28;20044;-76
2023/02/20 09:12:32;;;;;;;12.38;10.18;;;;;;;7.85;74.31;99059.41;5070757;28;20464;-76
2023/02/20 09:14:59;;;;;;;15.45;9.60;;;;;;;7.84;73.50;99043.53;5036174;28;20032;-75
2023/02/20 09:17:28;;;;;;;13.25;9.85;;;;;;;7.68;73.96;99046.59;5044441;28;20029;-75
2023/02/20 09:19:53;;;;;;;14.02;8.73;;;;;;;7.89;74.57;99049.91;5031482;28;20033;-76
2023/02/20 09:22:26;;;;;;;13.93;9.45;;;;;;;7.92;74.04;99046.81;5056482;28;20027;-75
2023/02/20 09:24:52;;;;;;;12.32;7.63;;;;;;;7.95;72.48;99043.72;5043219;28;20089;-76
2023/02/20 09:27:18;;;;;;;11.48;7.50;;;;;;;8.11;73.02;99043.31;5046418;28;20112;-76
2023/02/20 09:29:43;;;;;;;9.60;6.75;;;;;;;8.00;72.24;99035.88;5070173;28;20076;-75
2023/02/20 09:32:09;;;;;;;9.18;6.97;;;;;;;8.20;71.14;99035.84;5056889;28;20023;-75
2023/02/20 09:34:35;;;;;;;11.45;6.90;;;;;;;8.29;71.30;99040.00;5039476;28;20547;-75
2023/02/20 09:37:00;;;;;;;9.75;6.00;;;;;;;8.73;70.45;99031.19;5046211;28;20025;-75
2023/02/20 09:39:26;;;;;;;14.27;5.88;;;;;;;8.70;70.46;99020.91;5070261;28;20127;-76
2023/02/20 09:42:09;;;;;;;7.47;5.65;;;;;;;8.81;70.35;99023.75;5084049;28;20056;-75
2023/02/20 09:44:50;;;;;;;7.53;5.15;;;;;;;8.93;69.66;99030.13;5056681;28;20036;-76
2023/02/20 09:47:31;;;;;;;7.38;4.47;;;;;;;8.97;67.37;99027.81;5073599;28;20040;-76
2023/02/20 09:50:00;;;;;;;8.50;4.25;;;;;;;9.17;67.04;99027.72;5073738;28;20475;-75
2023/02/20 09:52:26;;;;;;;6.53;4.40;;;;;;;9.05;68.90;99024.88;5056902;28;20021;-75
2023/02/20 09:54:58;;;;;;;7.25;4.25;;;;;;;9.30;67.58;99017.72;5043219;28;20040;-75
2023/02/20 09:57:28;;;;;;;5.78;3.83;;;;;;;9.16;67.68;99026.91;5050836;28;20188;-75
2023/02/20 09:59:58;;;;;;;8.43;4.30;;;;;;;9.05;68.05;99019.53;5057230;28;20040;-76
2023/02/20 10:02:50;;;;;;;6.80;4.15;;;;;;;9.25;67.67;99030.97;5051272;28;20041;-76
2023/02/20 10:05:22;;;;;;;6.72;4.70;;;;;;;9.06;68.96;99031.91;5069112;28;20055;-76
2023/02/20 10:07:49;;;;;;;8.45;4.25;;;;;;;9.06;68.79;99015.78;5056228;28;20032;-75
2023/02/20 10:10:27;;;;;;;7.43;4.18;;;;;;;8.86;69.62;99025.81;5042690;28;20047;-76
2023/02/20 10:12:58;;;;;;;5.50;4.00;;;;;;;8.73;68.17;99031.19;5039192;28;20036;-75
2023/02/20 10:15:27;;;;;;;6.88;4.35;;;;;;;8.79;68.90;99016.94;5058897;28;20039;-75
2023/02/20 10:18:05;;;;;;;9.75;4.10;;;;;;;9.09;68.43;99009.97;5043099;28;20025;-76
2023/02/20 10:21:00;;;;;;;7.32;4.00;;;;;;;9.24;68.41;98994.38;5027213;28;20494;-76
2023/02/20 10:23:32;;;;;;;7.15;3.88;;;;;;;9.46;68.64;99001.06;5040356;28;20052;-76
2023/02/20 10:26:00;;;;;;;7.15;3.90;;;;;;;9.05;67.89;98998.03;5052278;28;20128;-76
2023/02/20 10:28:26;;;;;;;5.40;3.85;;;;;;;9.08;67.98;99008.31;5065894;28;20442;-76
2023/02/20 10:31:03;;;;;;;7.53;4.40;;;;;;;8.79;68.40;99014.25;5065221;28;20063;-75
2023/02/20 10:33:31;;;;;;;7.13;4.13;;;;;;;8.76;68.90;99015.50;5061085;28;20039;-76
2023/02/20 10:36:19;;;;;;;9.48;5.10;;;;;;;8.51;70.08;99013.72;5072055;28;20423;-76
2023/02/20 10:38:52;;;;;;;10.70;4.80;;;;;;;8.55;69.97;99001.53;5073333;28;20044;-76
2023/02/20 10:41:27;;;;;;;11.05;4.57;;;;;;;8.49;71.15;98988.97;5056080;28;20094;-75
2023/02/20 10:44:01;;;;;;;5.70;3.85;;;;;;;8.43;69.46;98993.31;5042782;28;20033;-76
2023/02/20 10:46:45;;;;;;;7.45;5.18;;;;;;;8.50;69.79;99004.03;5052358;28;20060;-76
2023/02/20 10:49:16;;;;;;;9.52;4.90;;;;;;;8.70;70.63;98994.06;5051424;28;20036;-76
2023/02/20 10:51:44;;;;;;;8.90;5.10;;;;;;;8.70;70.25;98973.41;5053457;28;20037;-77
2023/02/20 10:54:15;;;;;;;8.27;5.57;;;;;;;8.90;70.25;98992.09;5067791;28;20491;-76
2023/02/20 10:56:44;;;;;;;5.70;4.43;;;;;;;8.99;70.29;98977.38;5047152;28;20407;-76
2023/02/20 10:59:20;;;;;;;9.60;5.45;;;;;;;8.84;69.89;98958.88;5037100;28;20364;-75
2023/02/20 11:01:48;;;;;;;8.55;5.57;;;;;;;9.05;70.17;98971.97;5065418;28;20032;-76
2023/02/20 11:04:23;;;;;;;7.97;5.50;;;;;;;9.06;69.47;98972.78;5035704;28;20534;-76
2023/02/20 11:06:58;;;;;;;8.85;5.50;;;;;;;9.31;69.67;98954.84;5050895;28;20036;-76
2023/02/20 11:09:24;;;;;;;8.10;5.33;;;;;;;9.46;69.64;98947.31;5046696;28;20051;-75
2023/02/20 11:11:51;;;;;;;8.27;5.47;;;;;;;9.41;68.96;98944.44;5050964;28;20347;-75
2023/02/20 11:14:23;;;;;;;9.05;5.50;;;;;;;9.67;68.36;98938.03;5051759;28;20388;-76
2023/02/20 11:16:53;;;;;;;9.02;5.47;;;;;;;9.25;68.40;98934.22;5055068;28;20062;-75
2023/02/20 11:19:30;;;;;;;7.90;5.10;;;;;;;9.27;69.33;98937.50;5052188;28;20128;-76
2023/02/20 11:21:56;;;;;;;10.93;5.43;;;;;;;9.52;69.39;98930.28;5035521;28;20055;-75
2023/02/20 11:24:31;;;;;;;7.90;4.85;;;;;;;9.31;68.79;98922.59;5044217;28;20029;-76
2023/02/20 11:27:06;;;;;;;8.23;5.47;;;;;;;9.79;69.31;98930.06;5052117;28;20040;-75
2023/02/20 11:29:56;;;;;;;10.43;5.65;;;;;;;9.69;68.36;98915.25;5054988;28;20135;-75
2023/02/20 11:32:27;;;;;;;8.38;5.03;;;;;;;9.68;69.25;98913.59;5047484;28;20560;-75
2023/02/20 11:35:25;;;;;;;7.28;4.80;;;;;;;9.92;68.15;98908.41;5064947;28;20037;-75
2023/02/20 11:38:18;;;;;;;8.65;4.85;;;;;;;10.00;68.68;98905.41;5051067;28;20048;-75
2023/02/20 11:41:05;;;;;;;7.00;5.40;;;;;;;9.89;67.83;98892.72;5066361;28;20040;-75
2023/02/20 11:43:34;;;;;;;11.90;5.40;;;;;;;10.04;67.69;98883.22;5071607;28;20041;-76
2023/02/20 11:46:21;;;;;;;7.75;4.68;;;;;;;10.37;67.80;98891.78;5036841;28;20052;-75
2023/02/20 11:49:01;;;;;;;10.07;5.43;;;;;;;10.39;68.26;98862.75;5050970;28;20043;-75
2023/02/20 11:51:40;;;;;;;8.27;5.30;;;;;;;9.98;66.59;98859.09;5061978;28;20096;-75
2023/02/20 11:54:12;;;;;;;7.18;4.72;;;;;;;10.15;66.61;98865.56;5062429;28;20491;-75
2023/02/20 11:57:10;;;;;;;7.97;4.95;;;;;;;9.97;66.73;98868.19;5061609;28;20533;-75
2023/02/20 11:59:37;;;;;;;8.80;5.35;;;;;;;10.10;66.72;98857.28;5049850;28;20479;-75
2023/02/20 12:02:15;;;;;;;8.40;4.70;;;;;;;10.25;66.74;98846.97;5049812;28;20039;-75